Time;durP1;ratioP1;P1;durP2;ratioP2;P2;SDS_P1;SDS_P2;PMS_P1;PMS_P2;Temp;Humidity;BMP_temperature;BMP_pressure;BME280_temperature;BME280_humidity;BME280_pressure;Samples;Min_cycle;Max_cycle;Signal;HPM_P1;HPM_P2
2021/12/12 02:37:12;;;;;;;4.80;4.13;;;;;;;18.65;48.57;97968.91;4917439;29;20260;-87
2021/12/12 02:39:51;;;;;;;5.27;3.63;;;;;;;20.41;48.88;98278.09;4901548;29;20200;-87
2021/12/12 02:42:21;;;;;;;6.20;3.87;;;;;;;17.54;48.54;97791.31;4914578;29;20236;-88
2021/12/12 02:45:20;;;;;;;4.23;3.57;;;;;;;17.79;48.84;97819.66;4915044;29;20221;-88
2021/12/12 02:47:54;;;;;;;5.00;3.60;;;;;;;15.85;48.82;97477.34;4907570;29;20217;-87
2021/12/12 02:50:33;;;;;;;6.13;4.37;;;;;;;17.52;48.83;97803.94;4900601;29;20213;-88
2021/12/12 02:53:24;;;;;;;4.40;3.87;;;;;;;17.03;49.02;97703.25;4916142;29;20229;-87
2021/12/12 02:56:01;;;;;;;5.00;3.63;;;;;;;17.70;48.94;97835.34;4916138;29;20239;-88
2021/12/12 02:58:31;;;;;;;4.00;3.60;;;;;;;17.54;48.70;97788.78;4897267;29;20221;-88
2021/12/12 03:01:17;;;;;;;5.50;3.80;;;;;;;17.08;48.83;97716.16;4913469;29;20670;-88
2021/12/12 03:03:52;;;;;;;4.50;3.57;;;;;;;17.02;48.72;97709.09;4923764;29;20260;-87
2021/12/12 03:06:33;;;;;;;5.57;3.90;;;;;;;17.39;48.75;97782.91;4901169;29;20212;-88
2021/12/12 03:09:47;;;;;;;4.97;3.73;;;;;;;16.26;48.87;97595.25;4902407;29;20220;-88
2021/12/12 03:12:19;;;;;;;4.13;3.73;;;;;;;17.55;48.96;97808.28;4891813;29;20220;-88
2021/12/12 03:14:53;;;;;;;4.57;3.60;;;;;;;16.40;49.10;97623.84;4897676;29;20316;-88
2021/12/12 03:49:40;;;;;;;4.47;3.20;;;;;;;18.71;49.16;98022.66;4954693;23;20672;-88
2021/12/12 03:52:11;;;;;;;3.63;3.33;;;;;;;17.39;49.05;97791.41;4898704;29;20209;-87
2021/12/12 03:54:41;;;;;;;4.97;3.60;;;;;;;19.73;49.10;98216.19;4912382;29;20616;-88
2021/12/12 03:57:16;;;;;;;3.47;3.17;;;;;;;16.24;49.17;97575.69;4913911;29;20199;-88
2021/12/12 03:59:46;;;;;;;3.83;3.43;;;;;;;16.95;48.94;97703.63;4914085;29;20204;-88
2021/12/12 04:02:13;;;;;;;3.67;3.37;;;;;;;18.53;49.26;97981.03;4898823;29;20232;-88
2021/12/12 04:56:16;;;;;;;4.23;3.53;;;;;;;20.42;48.59;98364.09;4984569;28;20292;-91
2021/12/12 04:58:52;;;;;;;4.43;3.00;;;;;;;20.42;48.61;98370.09;4963909;28;20204;-88
2021/12/12 05:01:26;;;;;;;4.63;3.67;;;;;;;15.31;48.83;97520.91;4957789;28;20214;-96
2021/12/12 05:04:11;;;;;;;3.83;3.30;;;;;;;20.42;48.65;98376.88;4964806;28;20190;-96
2021/12/12 05:06:41;;;;;;;4.00;3.60;;;;;;;15.44;48.55;97518.28;4981407;28;20173;-96
2021/12/12 05:09:17;;;;;;;3.90;3.50;;;;;;;20.41;48.68;98375.13;4946454;28;20185;-96
2021/12/12 05:12:06;;;;;;;3.40;3.10;;;;;;;20.40;48.81;98381.91;4961970;28;20217;-96
2021/12/12 05:20:01;;;;;;;3.20;2.83;;;;;;;16.05;48.70;97641.47;5128796;23;20262;-96
2021/12/12 05:22:55;;;;;;;3.10;2.80;;;;;;;20.41;48.79;98382.78;4967433;29;20234;-96
2021/12/12 05:25:28;;;;;;;3.43;3.10;;;;;;;18.27;49.10;98014.47;4960647;29;20229;-92
2021/12/12 05:27:56;;;;;;;3.37;3.07;;;;;;;15.20;48.88;97499.25;4924994;29;20201;-91
2021/12/12 05:30:25;;;;;;;3.50;3.20;;;;;;;15.37;48.82;97546.59;4920436;29;20208;-89
2021/12/12 05:32:52;;;;;;;3.17;2.83;;;;;;;17.62;48.47;97930.66;4929851;29;20205;-89
2021/12/12 05:35:21;;;;;;;3.70;3.40;;;;;;;16.88;48.71;97826.88;4936493;29;20295;-92
2021/12/12 05:37:57;;;;;;;3.50;2.80;;;;;;;17.35;48.74;97872.47;4957284;29;20227;-92
2021/12/12 05:41:32;;;;;;;3.33;3.03;;;;;;;14.02;48.52;97321.56;5177990;23;20203;-96
2021/12/12 05:43:59;;;;;;;2.73;2.53;;;;;;;16.36;48.63;97703.97;4963826;29;20212;-96
2021/12/12 05:49:28;;;;;;;3.20;2.90;;;;;;;17.09;48.33;97883.81;5819869;23;20204;-96
2021/12/12 05:51:59;;;;;;;3.60;3.30;;;;;;;16.38;48.81;97762.41;4931680;28;20201;-95
2021/12/12 05:57:22;;;;;;;3.30;3.00;;;;;;;17.13;48.47;97888.25;5193848;23;20232;-93
2021/12/12 06:00:10;;;;;;;3.30;3.00;;;;;;;17.46;48.68;97952.66;4966972;28;20200;-96
2021/12/12 06:02:41;;;;;;;3.37;3.10;;;;;;;14.73;48.53;97457.84;4948310;28;20231;-90
2021/12/12 06:05:08;;;;;;;3.03;2.83;;;;;;;17.17;48.71;97907.94;4947084;29;20229;-90
2021/12/12 06:07:37;;;;;;;3.30;3.00;;;;;;;17.18;48.68;97885.97;4921952;29;20283;-91
2021/12/12 06:10:06;;;;;;;3.60;3.10;;;;;;;16.95;48.76;97826.38;4939954;29;20620;-87
2021/12/12 06:12:34;;;;;;;3.50;3.20;;;;;;;15.27;48.03;97548.50;4933364;29;20205;-90
2021/12/12 06:15:05;;;;;;;4.37;3.97;;;;;;;18.66;47.38;98143.75;4937256;29;20229;-89
2021/12/12 06:17:38;;;;;;;4.63;4.20;;;;;;;16.69;47.54;97777.59;4922957;29;20228;-86
2021/12/12 06:20:06;;;;;;;4.23;3.83;;;;;;;17.06;48.03;97865.00;4927044;29;20220;-91
2021/12/12 06:22:35;;;;;;;4.20;3.90;;;;;;;16.70;48.02;97807.25;4926243;28;20235;-96
2021/12/12 06:43:56;;;;;;;4.03;3.70;;;;;;;16.40;48.05;97807.34;5230759;23;20223;-96
2021/12/12 06:49:18;;;;;;;4.50;3.77;;;;;;;15.48;48.20;97625.69;5114341;23;20207;-96
2021/12/12 07:05:07;;;;;;;3.80;3.50;;;;;;;14.61;48.25;97450.47;4982475;28;20228;-96
2021/12/12 07:07:37;;;;;;;3.70;3.40;;;;;;;14.58;48.52;97457.91;4957416;28;20204;-93
2021/12/12 08:41:59;;;;;;;6.40;4.70;;;;;;;17.32;40.45;97979.84;4963979;28;20271;-93
2021/12/12 08:44:30;;;;;;;8.13;5.00;;;;;;;15.59;40.70;97667.66;4930280;29;20339;-93
2021/12/12 08:47:00;;;;;;;5.60;5.00;;;;;;;17.38;41.23;97997.97;4929248;29;20197;-93
2021/12/12 08:49:37;;;;;;;5.13;4.63;;;;;;;17.26;41.82;97956.66;4911705;29;20275;-93
2021/12/12 08:52:12;;;;;;;5.73;4.80;;;;;;;16.99;42.61;97950.13;4930013;29;20609;-93
2021/12/12 08:54:40;;;;;;;5.20;4.70;;;;;;;19.83;42.90;98384.16;4949575;29;20232;-95
2021/12/12 09:00:30;;;;;;;4.23;3.83;;;;;;;15.05;43.55;97576.00;4947119;29;20197;-91
2021/12/12 09:02:57;;;;;;;5.37;4.40;;;;;;;18.03;43.73;98137.06;4920963;29;20229;-94
2021/12/12 09:05:30;;;;;;;4.70;4.17;;;;;;;18.69;44.05;98208.44;4913325;29;20252;-93
2021/12/12 09:08:17;;;;;;;4.20;3.80;;;;;;;16.62;44.07;97849.97;4918357;29;20211;-92
2021/12/12 09:10:48;;;;;;;5.13;3.97;;;;;;;16.00;44.21;97765.41;4914745;29;20197;-91
2021/12/12 09:13:20;;;;;;;4.33;3.80;;;;;;;19.81;44.39;98407.03;4919072;29;20233;-92
2021/12/12 09:15:58;;;;;;;4.50;4.00;;;;;;;18.66;44.58;98195.53;4949432;29;20229;-95
2021/12/12 09:19:00;;;;;;;3.80;3.50;;;;;;;19.70;44.71;98367.41;4936807;29;20201;-93
2021/12/12 09:21:33;;;;;;;3.60;3.20;;;;;;;18.62;44.91;98177.50;4941131;29;20230;-96
2021/12/12 09:24:11;;;;;;;4.00;3.00;;;;;;;19.98;44.97;98427.44;4936618;29;20281;-93
2021/12/12 09:26:43;;;;;;;4.20;3.37;;;;;;;20.24;45.50;98468.78;4951871;28;20197;-95
2021/12/12 09:29:48;;;;;;;7.33;3.67;;;;;;;20.68;45.29;98538.22;4916596;29;20213;-94
2021/12/12 09:35:23;;;;;;;3.27;2.60;;;;;;;15.25;45.21;97588.94;5220263;23;20244;-94
2021/12/12 09:38:09;;;;;;;3.37;2.90;;;;;;;20.68;45.19;98525.44;4948719;29;20247;-94
2021/12/12 09:40:42;;;;;;;2.87;2.67;;;;;;;20.69;45.49;98519.53;4964412;29;20204;-93
2021/12/12 09:43:20;;;;;;;2.70;2.50;;;;;;;20.68;45.58;98517.78;4962910;28;20216;-92
2021/12/12 09:46:02;;;;;;;3.20;2.90;;;;;;;20.67;45.64;98513.47;4970431;28;20224;-93
2021/12/12 09:53:13;;;;;;;3.73;2.97;;;;;;;14.74;45.41;97532.94;4950369;29;20201;-93
2021/12/12 09:59:32;;;;;;;3.07;2.73;;;;;;;20.66;46.10;98500.63;4951626;28;20204;-91
2021/12/12 10:02:04;;;;;;;2.73;2.53;;;;;;;20.66;46.12;98495.53;4951122;29;20228;-93
2021/12/12 10:04:55;;;;;;;2.43;2.23;;;;;;;19.30;46.36;98314.34;4952434;29;20224;-93
2021/12/12 10:07:34;;;;;;;2.50;2.30;;;;;;;20.67;46.25;98493.06;4951572;29;20244;-95
2021/12/12 10:10:27;;;;;;;3.10;2.43;;;;;;;14.98;46.96;97510.66;4951122;29;20197;-92
2021/12/12 10:13:26;;;;;;;6.30;2.50;;;;;;;18.92;46.17;98179.03;4952968;28;20263;-92
2021/12/12 10:15:57;;;;;;;8.43;2.93;;;;;;;16.19;46.70;97754.59;4920842;29;20212;-93
2021/12/12 10:18:38;;;;;;;6.63;2.93;;;;;;;20.71;46.34;98489.81;4911165;29;20289;-92
2021/12/12 10:21:13;;;;;;;9.30;2.77;;;;;;;19.50;46.56;98283.06;4950173;29;20227;-91
2021/12/12 10:24:06;;;;;;;3.83;2.77;;;;;;;20.73;46.36;98482.25;4950033;29;20251;-91
2021/12/12 10:26:43;;;;;;;5.50;2.80;;;;;;;18.72;46.05;98166.97;4967603;29;20237;-94
2021/12/12 10:29:24;;;;;;;4.60;2.70;;;;;;;20.73;46.36;98479.69;4952592;29;20196;-94
2021/12/12 10:32:02;;;;;;;4.87;2.60;;;;;;;20.73;46.19;98470.34;4959218;28;20204;-93
2021/12/12 10:34:56;;;;;;;7.03;2.63;;;;;;;20.09;46.16;98403.28;4920195;29;20220;-93
2021/12/12 10:37:28;;;;;;;3.03;2.30;;;;;;;13.93;46.24;97339.63;4966634;29;20196;-92
2021/12/12 10:40:07;;;;;;;4.27;2.50;;;;;;;16.76;46.34;97841.44;4948969;29;20201;-93
2021/12/12 10:42:44;;;;;;;9.80;2.37;;;;;;;17.97;46.11;97994.34;4961140;28;20247;-90
2021/12/12 10:45:21;;;;;;;3.60;2.30;;;;;;;19.70;46.24;98296.00;4939291;29;20226;-91
2021/12/12 10:47:52;;;;;;;3.00;2.53;;;;;;;20.74;46.07;98463.53;4938733;29;20485;-91
2021/12/12 10:50:21;;;;;;;6.80;2.23;;;;;;;20.74;46.33;98461.88;4957007;29;20974;-92
2021/12/12 10:52:56;;;;;;;4.27;2.67;;;;;;;19.62;46.35;98253.94;4939582;29;20272;-91
2021/12/12 10:55:25;;;;;;;7.73;2.50;;;;;;;20.27;46.46;98378.69;4944257;23;20244;-87
2021/12/12 10:57:57;;;;;;;2.70;2.13;;;;;;;20.46;46.51;98400.06;4911298;29;20281;-88
2021/12/12 11:00:30;;;;;;;4.87;2.60;;;;;;;20.36;46.21;98384.22;4916994;29;20190;-88
2021/12/12 11:03:03;;;;;;;6.37;2.60;;;;;;;20.76;46.33;98450.06;4912722;29;20221;-88
2021/12/12 11:05:55;;;;;;;4.17;2.40;;;;;;;20.14;46.30;98338.09;4915533;29;20234;-89
2021/12/12 11:08:41;;;;;;;7.37;3.00;;;;;;;20.73;46.26;98443.91;4904980;29;20222;-90
2021/12/12 11:11:16;;;;;;;9.17;2.47;;;;;;;19.26;46.41;98203.69;4902903;29;20486;-91
2021/12/12 11:14:11;;;;;;;5.67;2.73;;;;;;;20.77;46.47;98456.91;4917321;29;20202;-91
2021/12/12 11:16:51;;;;;;;4.17;2.57;;;;;;;20.02;46.09;98334.09;4917947;29;20187;-90
2021/12/12 11:19:31;;;;;;;3.83;2.60;;;;;;;20.77;46.33;98454.34;4916315;29;20437;-91
2021/12/12 11:22:11;;;;;;;5.33;2.53;;;;;;;20.34;46.32;98388.41;4900229;29;20225;-89
2021/12/12 11:24:40;;;;;;;2.57;2.33;;;;;;;20.01;46.34;98315.31;4898443;29;20696;-85
2021/12/12 11:27:08;;;;;;;4.17;2.40;;;;;;;20.76;46.25;98449.16;4874965;29;20233;-89
2021/12/12 11:29:37;;;;;;;3.10;2.20;;;;;;;20.34;46.01;98370.53;4897838;29;20237;-87
2021/12/12 11:32:09;;;;;;;2.80;2.40;;;;;;;20.77;46.34;98449.25;4888848;29;20265;-87
2021/12/12 11:34:50;;;;;;;4.43;2.47;;;;;;;18.89;46.18;98128.78;4897847;29;20618;-87
2021/12/12 11:37:27;;;;;;;5.77;2.53;;;;;;;19.44;46.24;98240.31;4894973;29;20234;-89
2021/12/12 11:40:02;;;;;;;5.27;2.70;;;;;;;18.03;46.42;97998.88;4904408;29;20175;-90
2021/12/12 11:42:37;;;;;;;4.83;3.37;;;;;;;19.66;44.30;98286.41;4898851;29;20227;-89
2021/12/12 11:45:29;;;;;;;10.00;4.40;;;;;;;20.75;42.73;98442.31;4890358;29;20947;-87
2021/12/12 11:48:17;;;;;;;4.17;3.77;;;;;;;20.74;43.36;98441.44;4899955;29;20215;-87
2021/12/12 11:51:01;;;;;;;9.57;3.80;;;;;;;19.94;44.63;98293.72;4886713;29;20269;-88
2021/12/12 11:53:47;;;;;;;10.17;4.27;;;;;;;20.74;44.79;98440.56;4906823;29;20194;-86
2021/12/12 11:56:30;;;;;;;8.37;4.03;;;;;;;18.82;45.09;98111.47;4892966;29;20234;-87
2021/12/12 11:59:11;;;;;;;7.67;3.67;;;;;;;19.37;45.35;98201.69;4898779;29;20202;-88
2021/12/12 12:01:44;;;;;;;9.33;3.30;;;;;;;17.09;45.38;97824.53;4891341;29;20257;-90
2021/12/12 12:04:36;;;;;;;10.13;3.77;;;;;;;20.73;45.75;98432.03;4912043;29;20266;-88
2021/12/12 12:07:32;;;;;;;7.23;3.60;;;;;;;20.24;45.62;98346.25;4908019;29;20206;-88
2021/12/12 12:10:10;;;;;;;10.83;3.17;;;;;;;20.73;45.67;98423.47;4915361;29;20311;-87
2021/12/12 12:13:08;;;;;;;6.40;3.40;;;;;;;19.98;45.66;98311.81;4904514;29;20219;-88
2021/12/12 12:16:16;;;;;;;4.33;3.37;;;;;;;20.14;45.80;98336.41;4880834;29;20231;-89
2021/12/12 12:18:49;;;;;;;5.33;3.40;;;;;;;20.32;45.89;98359.38;4873355;29;20210;-87
2021/12/12 12:21:22;;;;;;;3.20;2.90;;;;;;;19.59;46.05;98233.41;4900253;29;20230;-90
2021/12/12 12:24:13;;;;;;;2.93;2.63;;;;;;;20.70;46.26;98421.66;4911955;29;20278;-88
2021/12/12 12:26:56;;;;;;;6.00;2.70;;;;;;;18.05;46.07;97975.25;4909260;29;20249;-90
2021/12/12 12:29:32;;;;;;;6.20;2.77;;;;;;;20.70;45.93;98423.34;4913067;29;20193;-88
2021/12/12 12:32:36;;;;;;;3.10;2.80;;;;;;;20.70;46.18;98420.78;4909476;29;20214;-89
2021/12/12 12:35:43;;;;;;;4.57;2.60;;;;;;;20.70;46.11;98420.78;4904274;29;20257;-88
2021/12/12 12:38:47;;;;;;;4.30;2.43;;;;;;;20.70;46.14;98424.22;4891282;29;20214;-88
2021/12/12 12:41:52;;;;;;;6.67;3.03;;;;;;;20.69;46.22;98417.34;4906708;29;20213;-88
2021/12/12 12:45:12;;;;;;;2.60;2.33;;;;;;;20.70;46.28;98410.56;4934469;29;20217;-90
2021/12/12 12:48:14;;;;;;;5.23;2.63;;;;;;;20.70;46.19;98415.69;4914591;29;20218;-90
2021/12/12 12:50:42;;;;;;;2.97;2.47;;;;;;;20.15;46.21;98335.59;4896038;29;20207;-88
2021/12/12 12:53:38;;;;;;;3.53;2.50;;;;;;;20.33;46.24;98341.56;4897181;29;20215;-88
2021/12/12 12:56:23;;;;;;;4.67;2.60;;;;;;;20.68;46.19;98400.28;4922944;29;20238;-89
2021/12/12 12:59:17;;;;;;;3.27;2.20;;;;;;;20.68;46.31;98394.28;4898651;29;20199;-88
2021/12/12 13:02:12;;;;;;;3.17;2.60;;;;;;;20.68;46.23;98400.28;4908529;29;20206;-88
2021/12/12 13:05:01;;;;;;;4.03;2.60;;;;;;;20.67;46.30;98388.31;4903993;29;20257;-88
2021/12/12 13:07:40;;;;;;;2.87;2.33;;;;;;;20.39;46.39;98340.97;4907377;29;20275;-88
2021/12/12 13:10:18;;;;;;;2.73;2.50;;;;;;;18.43;46.29;98004.28;4911045;29;20206;-88
2021/12/12 13:13:02;;;;;;;3.67;2.10;;;;;;;20.67;46.38;98390.00;4908595;29;20215;-88
2021/12/12 13:15:52;;;;;;;3.30;2.10;;;;;;;20.55;46.42;98387.75;4920013;29;20234;-87
2021/12/12 13:18:37;;;;;;;2.87;2.30;;;;;;;20.67;46.65;98398.53;4897222;29;20238;-88
2021/12/12 13:21:18;;;;;;;3.87;2.37;;;;;;;18.56;46.56;98021.91;4910496;29;20207;-88
2021/12/12 13:24:04;;;;;;;3.00;2.17;;;;;;;20.67;46.50;98396.00;4910241;29;20615;-88
2021/12/12 13:27:23;;;;;;;3.63;2.40;;;;;;;20.68;46.40;98396.84;4923263;29;20261;-87
2021/12/12 13:30:03;;;;;;;4.67;2.10;;;;;;;18.14;46.42;97951.94;4892697;29;20210;-89
2021/12/12 13:32:50;;;;;;;4.13;2.23;;;;;;;20.69;46.74;98388.41;4905663;29;20206;-86
2021/12/12 13:35:30;;;;;;;5.47;2.10;;;;;;;20.70;47.08;98391.03;4906124;29;20258;-88
2021/12/12 13:38:09;;;;;;;3.47;2.20;;;;;;;19.16;46.76;98144.56;4897088;29;20211;-89
2021/12/12 13:40:58;;;;;;;4.67;2.40;;;;;;;17.91;46.63;97950.78;4898009;29;20254;-91
2021/12/12 13:43:55;;;;;;;3.20;2.17;;;;;;;20.73;46.75;98397.94;4901701;29;20240;-89
2021/12/12 13:46:29;;;;;;;3.47;2.40;;;;;;;20.72;46.44;98385.97;4901300;29;20203;-90
2021/12/12 13:49:11;;;;;;;5.27;2.30;;;;;;;19.98;46.69;98276.91;4900512;29;20186;-89
2021/12/12 13:52:21;;;;;;;3.63;1.97;;;;;;;20.73;46.59;98392.84;4901580;29;20190;-89
2021/12/12 13:55:03;;;;;;;4.13;2.27;;;;;;;17.18;46.58;97779.28;4913742;29;20235;-89
2021/12/12 13:57:59;;;;;;;4.07;2.37;;;;;;;19.49;46.49;98180.22;4895582;29;20231;-88
2021/12/12 14:00:28;;;;;;;4.83;2.13;;;;;;;19.33;46.59;98149.69;4903083;29;20202;-87
2021/12/12 14:03:04;;;;;;;6.90;2.40;;;;;;;19.10;46.63;98106.91;4896296;29;20298;-89
2021/12/12 14:05:38;;;;;;;4.33;2.63;;;;;;;17.11;46.46;97790.81;4894557;29;20218;-88
2021/12/12 14:08:10;;;;;;;7.10;2.40;;;;;;;19.14;46.63;98136.84;4896304;29;20207;-89
2021/12/12 14:10:55;;;;;;;3.63;2.23;;;;;;;16.98;46.44;97769.78;4914442;29;20210;-89
2021/12/12 14:13:22;;;;;;;3.77;2.27;;;;;;;20.72;46.62;98404.72;4889799;29;20186;-90
2021/12/12 14:15:54;;;;;;;3.53;2.00;;;;;;;18.60;46.58;98046.72;4898574;29;20214;-90
2021/12/12 14:18:21;;;;;;;2.53;1.90;;;;;;;18.88;46.52;98082.88;4902843;29;20183;-90
2021/12/12 14:20:50;;;;;;;4.60;2.13;;;;;;;18.52;46.38;98017.44;4916429;29;20206;-89
2021/12/12 14:23:24;;;;;;;2.20;2.00;;;;;;;18.12;46.54;97945.91;4915717;29;20242;-88
2021/12/12 14:25:58;;;;;;;4.23;2.10;;;;;;;20.38;46.64;98337.56;4916369;29;20209;-88
2021/12/12 14:28:26;;;;;;;2.87;2.00;;;;;;;20.34;46.67;98332.25;4915795;29;20245;-88
2021/12/12 14:30:53;;;;;;;2.67;2.43;;;;;;;16.53;46.50;97676.09;4890614;29;20207;-88
2021/12/12 14:33:25;;;;;;;2.40;2.03;;;;;;;15.92;46.48;97575.69;4905901;29;20677;-87
2021/12/12 14:36:21;;;;;;;3.17;2.50;;;;;;;18.06;46.37;97963.41;4897688;29;20230;-87
2021/12/12 14:38:48;;;;;;;3.17;1.80;;;;;;;17.97;46.61;97961.28;4904613;29;20651;-86
2021/12/12 14:41:16;;;;;;;2.27;1.93;;;;;;;18.05;46.59;97956.56;4914431;29;20214;-88
2021/12/12 14:43:52;;;;;;;3.67;1.90;;;;;;;20.73;46.93;98429.47;4920721;29;20225;-87
2021/12/12 14:46:21;;;;;;;5.03;2.60;;;;;;;19.53;46.78;98233.09;4910490;29;20619;-89
2021/12/12 14:48:54;;;;;;;4.07;2.00;;;;;;;16.93;46.47;97782.25;4895138;29;20217;-88
2021/12/12 14:51:50;;;;;;;2.30;2.10;;;;;;;20.73;46.53;98426.94;4898254;29;20222;-89
2021/12/12 14:54:16;;;;;;;4.23;2.20;;;;;;;20.74;46.62;98430.34;4909370;29;20225;-86
2021/12/12 14:56:49;;;;;;;2.87;1.93;;;;;;;20.74;47.02;98417.56;4905464;29;20282;-88
2021/12/12 14:59:25;;;;;;;3.80;2.00;;;;;;;20.14;46.47;98318.56;4891030;29;20217;-87
2021/12/12 15:01:58;;;;;;;4.80;2.03;;;;;;;17.87;46.34;97922.59;4889548;29;20248;-86
2021/12/12 15:04:28;;;;;;;2.57;2.20;;;;;;;19.95;46.63;98288.69;4902570;29;20234;-87
2021/12/12 15:06:57;;;;;;;2.70;2.17;;;;;;;20.74;46.79;98427.78;4884996;29;20226;-87
2021/12/12 15:09:29;;;;;;;2.90;2.17;;;;;;;17.79;46.42;97916.25;4868908;29;20305;-88
2021/12/12 15:12:05;;;;;;;2.20;2.00;;;;;;;18.40;46.62;98016.84;4877637;29;20338;-87
2021/12/12 15:14:33;;;;;;;2.33;1.93;;;;;;;20.29;46.74;98351.56;4904590;29;20276;-87
2021/12/12 15:17:10;;;;;;;3.03;1.97;;;;;;;20.72;46.77;98421.75;4889326;29;21244;-87
2021/12/12 15:19:37;;;;;;;3.70;2.17;;;;;;;18.98;46.58;98121.59;4905984;29;20201;-88
2021/12/12 15:22:09;;;;;;;2.27;1.90;;;;;;;19.66;46.64;98243.06;4889389;29;20246;-87
2021/12/12 15:24:41;;;;;;;2.30;2.10;;;;;;;20.26;46.75;98348.88;4886135;29;20340;-88
2021/12/12 15:27:13;;;;;;;2.53;2.10;;;;;;;18.80;46.61;98091.84;4904199;29;20246;-87
2021/12/12 15:29:39;;;;;;;2.00;1.80;;;;;;;20.36;46.62;98361.25;4889948;29;20217;-87
2021/12/12 15:32:17;;;;;;;4.13;2.20;;;;;;;20.70;46.74;98426.78;4903481;29;20202;-87
2021/12/12 15:34:49;;;;;;;2.20;1.87;;;;;;;18.38;46.74;98015.94;4872269;29;20245;-88
2021/12/12 15:37:15;;;;;;;1.77;1.67;;;;;;;18.52;46.78;98045.44;4904091;29;20627;-86
2021/12/12 15:39:55;;;;;;;5.63;2.27;;;;;;;20.71;46.56;98431.06;4889086;29;20202;-87
2021/12/12 15:42:23;;;;;;;2.10;1.90;;;;;;;20.71;46.69;98435.31;4903697;29;20242;-87
2021/12/12 15:45:04;;;;;;;2.03;1.90;;;;;;;20.72;46.65;98437.91;4901889;29;20233;-88
2021/12/12 15:47:32;;;;;;;2.07;1.87;;;;;;;19.33;46.88;98195.56;4884310;29;20207;-86
2021/12/12 15:50:01;;;;;;;5.20;2.27;;;;;;;18.75;46.37;98116.19;4880884;29;20215;-88
2021/12/12 15:52:30;;;;;;;2.07;1.87;;;;;;;20.38;46.50;98383.53;4881515;29;20217;-88
2021/12/12 15:55:05;;;;;;;2.67;2.00;;;;;;;18.14;46.55;97993.50;4881562;29;20226;-86
2021/12/12 15:57:36;;;;;;;3.07;2.00;;;;;;;20.09;46.44;98324.19;4876298;29;20241;-87
2021/12/12 16:00:13;;;;;;;3.50;2.40;;;;;;;19.65;46.45;98255.75;4875974;29;20211;-88
2021/12/12 16:02:40;;;;;;;2.97;2.03;;;;;;;19.82;46.32;98282.94;4854959;29;20278;-86
2021/12/12 16:05:19;;;;;;;2.40;2.00;;;;;;;18.26;46.39;98005.09;4889483;29;20234;-88
2021/12/12 16:07:51;;;;;;;2.53;2.23;;;;;;;19.99;46.26;98312.69;4883686;29;20233;-88
2021/12/12 16:10:24;;;;;;;2.27;2.00;;;;;;;19.52;46.40;98227.94;4881492;29;20234;-88
2021/12/12 16:12:51;;;;;;;3.03;2.07;;;;;;;19.96;46.26;98336.38;4879875;29;20310;-87
2021/12/12 16:15:18;;;;;;;2.37;1.93;;;;;;;18.32;46.16;98030.84;4868623;29;20633;-88
2021/12/12 16:17:49;;;;;;;2.17;1.97;;;;;;;20.76;46.38;98439.84;4886225;29;20744;-87
2021/12/12 16:20:25;;;;;;;3.70;2.00;;;;;;;19.12;46.32;98163.03;4880914;29;20300;-86
2021/12/12 16:22:56;;;;;;;1.87;1.77;;;;;;;18.52;46.15;98048.88;4864162;29;20694;-87
2021/12/12 16:25:24;;;;;;;2.60;2.20;;;;;;;20.41;46.05;98367.47;4884820;29;20257;-88
2021/12/12 16:27:55;;;;;;;1.90;1.80;;;;;;;20.18;46.42;98339.97;4854295;29;20238;-89
2021/12/12 16:30:34;;;;;;;2.23;2.03;;;;;;;19.84;46.33;98268.59;4888061;29;20230;-89
2021/12/12 16:33:11;;;;;;;2.60;1.97;;;;;;;19.55;46.45;98225.53;4885920;29;20256;-88
2021/12/12 16:35:39;;;;;;;2.40;2.20;;;;;;;20.46;46.25;98386.44;4898213;29;20258;-87
2021/12/12 16:38:20;;;;;;;2.20;2.00;;;;;;;20.14;46.16;98340.63;4886573;29;20237;-88
2021/12/12 16:40:52;;;;;;;1.97;1.87;;;;;;;19.90;46.23;98294.41;4894789;29;20704;-88
2021/12/12 16:43:20;;;;;;;2.20;2.00;;;;;;;19.12;46.19;98169.00;4890848;29;20251;-89
2021/12/12 16:45:52;;;;;;;2.33;2.13;;;;;;;18.53;46.23;98065.03;4883461;29;20265;-88
2021/12/12 16:48:21;;;;;;;2.33;1.93;;;;;;;20.31;46.40;98366.16;4858826;29;20241;-88
2021/12/12 16:50:56;;;;;;;3.07;2.40;;;;;;;18.17;46.07;97995.31;4876311;29;20238;-88
2021/12/12 16:53:30;;;;;;;2.40;2.20;;;;;;;18.74;46.24;98104.28;4875863;29;20202;-87
2021/12/12 16:55:57;;;;;;;2.27;2.10;;;;;;;20.17;46.30;98345.88;4889148;29;20773;-87
2021/12/12 16:58:29;;;;;;;2.53;2.33;;;;;;;20.39;46.44;98390.38;4890157;29;20246;-88
2021/12/12 17:00:58;;;;;;;2.50;2.30;;;;;;;20.29;46.25;98379.66;4889602;29;20242;-88
2021/12/12 17:03:36;;;;;;;2.40;2.20;;;;;;;20.60;46.25;98439.91;4902733;29;20227;-88
2021/12/12 17:06:11;;;;;;;4.37;2.23;;;;;;;20.56;46.03;98416.69;4891635;29;20229;-87
2021/12/12 17:11:34;;;;;;;2.60;2.40;;;;;;;20.63;46.07;98428.97;4884288;29;20218;-87
2021/12/12 17:14:11;;;;;;;2.50;2.30;;;;;;;20.23;46.00;98357.28;4871857;29;20242;-89
2021/12/12 17:16:38;;;;;;;2.53;2.20;;;;;;;19.86;46.36;98295.03;4889033;29;20306;-87
2021/12/12 17:19:04;;;;;;;2.60;2.20;;;;;;;19.86;46.34;98292.47;4870094;29;20226;-88
2021/12/12 17:21:31;;;;;;;2.10;1.90;;;;;;;20.75;45.84;98442.31;4875491;29;20252;-87
2021/12/12 17:24:01;;;;;;;2.83;2.60;;;;;;;20.15;45.93;98344.94;4854407;29;20266;-86
2021/12/12 17:26:31;;;;;;;3.27;2.60;;;;;;;18.62;46.07;98073.97;4886853;29;20223;-87
2021/12/12 17:28:58;;;;;;;3.17;2.50;;;;;;;20.75;45.97;98445.72;4889031;29;20767;-88
2021/12/12 17:31:34;;;;;;;2.57;2.37;;;;;;;18.97;46.31;98136.81;4888887;29;20230;-88
2021/12/12 17:34:03;;;;;;;3.17;2.40;;;;;;;19.82;46.13;98276.19;4889238;29;20277;-88
2021/12/12 17:36:34;;;;;;;2.60;2.40;;;;;;;20.74;46.36;98438.88;4877253;29;20234;-87
2021/12/12 17:39:04;;;;;;;2.40;2.20;;;;;;;19.88;46.36;98285.78;4889121;29;20245;-87
2021/12/12 18:11:40;;;;;;;4.07;2.40;;;;;;;16.17;46.37;97665.75;4959657;28;20224;-95
2021/12/12 18:14:28;;;;;;;2.40;2.20;;;;;;;14.30;46.29;97320.66;4954938;29;20193;-93
2021/12/12 18:17:47;;;;;;;2.57;2.37;;;;;;;20.77;46.57;98416.03;5089141;23;20216;-93
2021/12/12 19:03:34;;;;;;;2.83;2.60;;;;;;;20.78;46.24;98433.09;5504621;23;20222;-95
2021/12/12 19:06:21;;;;;;;3.30;2.67;;;;;;;17.31;46.44;97848.56;5534060;23;20247;-93
2021/12/12 19:08:49;;;;;;;3.50;2.70;;;;;;;17.11;46.68;97850.91;4992844;28;20200;-95
2021/12/12 23:44:46;;;;;;;1.83;1.73;;;;;;;19.77;46.13;98234.25;4592711;26;20232;-89
2021/12/12 23:47:24;;;;;;;1.90;1.80;;;;;;;16.85;46.14;97739.53;4920220;29;20263;-89
2021/12/12 23:49:54;;;;;;;1.97;1.87;;;;;;;19.13;46.15;98129.13;4978344;28;20711;-87
2021/12/12 23:52:33;;;;;;;1.80;1.70;;;;;;;17.07;46.38;97768.59;4953083;29;20229;-89
2021/12/12 23:55:10;;;;;;;2.07;1.97;;;;;;;18.67;46.16;98041.97;4926610;29;20213;-89
2021/12/12 23:57:40;;;;;;;2.23;2.03;;;;;;;16.41;46.12;97667.03;4942067;29;20197;-87
